Latest Weather Observations for Beaudesert AWS

IDQ60901

Issued at 7:51 pm EST Sunday 29 March 2020 (issued every 10 minutes, with the page automatically refreshed every 10 minutes)

About weather observations | Map of Brisbane area stations | Latest observations for Brisbane area | Other Formats
Station Details ID: 040983 Name: BEAUDESERT DRUMLEY STREET Lat: -27.97 Lon: 152.99 Height: 47.81 m
Data from the previous 72 hours. | See also: Recent months at Beaudesert AWS
Date/Time
EST
Temp
°C
App
Temp
°C
Dew
Point
°C
Rel
Hum
%
Delta-T
°C
Wind Press
QNH
hPa
Press
MSL
hPa
Rain since
9am
mm
Dir  Spd
km/h
Gust
km/h
Spd
kts
Gust
kts
29/07:30pm 22.5 25.6 19.5 83 1.9 SSE 2 4 1 2 1018.3 1018.1 0.0
29/07:00pm 22.6 25.7 19.6 83 1.9 ENE 2 4 1 2 1018.1 1017.9 0.0
29/06:30pm 22.8 25.6 19.6 82 2.1 ESE 4 11 2 6 1017.6 1017.4 0.0
29/06:00pm 23.4 25.6 19.1 77 2.7 ENE 6 9 3 5 1017.2 1017.0 0.0
29/05:30pm 24.6 26.9 19.4 73 3.3 ENE 6 13 3 7 1016.9 1016.7 0.0
29/05:00pm 25.0 26.8 19.6 72 3.5 ENE 9 13 5 7 1016.6 1016.4 0.0
29/04:30pm 26.2 27.5 20.1 69 4.0 E 13 20 7 11 1016.3 1016.1 0.0
29/04:00pm 26.9 27.5 20.3 67 4.3 ESE 17 24 9 13 1016.0 1015.8 0.0
29/03:30pm 27.0 28.2 19.9 65 4.6 ENE 13 24 7 13 1015.9 1015.7 0.0
29/03:00pm 27.5 29.2 18.5 58 5.8 E 7 17 4 9 1015.9 1015.7 0.0
29/02:30pm 28.9 30.2 17.1 49 7.4 SSE 6 9 3 5 1015.9 1015.7 0.0
29/02:00pm 29.4 31.0 17.9 50 7.3 W 6 9 3 5 1016.2 1016.0 0.0
29/01:30pm 28.6 29.9 17.2 50 7.2 WNW 6 9 3 5 1016.7 1016.5 0.0
29/01:00pm 28.3 29.9 17.8 53 6.7 WSW 6 13 3 7 1017.0 1016.8 0.0
29/12:30pm 27.3 28.8 17.5 55 6.2 W 6 13 3 7 1017.4 1017.2 0.0
29/12:00pm 27.6 29.9 18.6 58 5.8 WSW 4 9 2 5 1017.9 1017.7 0.0
29/11:30am 26.9 29.2 18.5 60 5.4 WNW 4 9 2 5 1018.4 1018.2 0.0
29/11:00am 25.8 27.6 18.2 63 4.8 S 6 13 3 7 1018.9 1018.7 0.0
29/10:30am 25.4 27.6 19.1 68 4.0 SSE 6 9 3 5 1019.2 1019.0 0.0
29/10:00am 24.4 26.2 18.3 69 3.8 SW 6 11 3 6 1019.5 1019.3 0.0
29/09:30am 23.7 26.3 19.2 76 2.9 SSE 4 9 2 5 1019.8 1019.6 0.0
29/09:00am 22.6 25.8 19.8 84 1.8 SSE 2 7 1 4 1019.8 1019.6 11.6
29/08:30am 21.1 24.4 19.9 93 0.8 SSE 2 4 1 2 1019.9 1019.7 11.6
29/08:00am 19.8 22.3 19.8 100 0.0 SE 6 11 3 6 1019.8 1019.6 11.6
29/07:30am 18.4 21.0 18.4 100 0.0 SE 2 6 1 3 1019.4 1019.2 11.6
29/07:00am 17.3 19.8 17.3 100 0.0 CALM 0 0 0 0 1019.3 1019.1 11.6
29/06:30am 15.9 17.9 15.9 100 0.0 CALM 0 0 0 0 1019.1 1018.9 11.6
29/06:00am 16.3 18.4 16.3 100 0.0 CALM 0 0 0 0 1018.6 1018.4 11.6
29/05:30am 16.6 18.5 16.6 100 0.0 SE 2 6 1 3 1018.3 1018.1 11.6
29/05:00am 16.8 18.7 16.8 100 0.0 SE 2 6 1 3 1017.9 1017.7 11.6
29/04:30am 17.0 19.4 17.0 100 0.0 CALM 0 0 0 0 1017.8 1017.6 11.6
29/04:00am 16.9 19.3 16.9 100 0.0 CALM 0 0 0 0 1017.8 1017.6 11.6
29/03:30am 17.2 19.7 17.2 100 0.0 CALM 0 0 0 0 1018.0 1017.8 11.6
29/03:00am 17.3 19.4 17.3 100 0.0 SE 2 4 1 2 1018.1 1017.9 11.6
29/02:30am 17.2 19.6 17.0 99 0.1 CALM 0 0 0 0 1018.0 1017.8 11.6
29/02:00am 18.0 20.8 18.0 100 0.0 CALM 0 0 0 0 1018.1 1017.9 11.6
29/01:30am 17.9 20.7 17.9 100 0.0 CALM 0 0 0 0 1018.5 1018.3 11.6
29/01:00am 18.5 21.5 18.5 100 0.0 CALM 0 0 0 0 1018.6 1018.4 11.6
29/12:30am 18.6 21.7 18.6 100 0.0 CALM 0 0 0 0 1018.8 1018.6 11.6
29/12:00am 18.6 21.7 18.6 100 0.0 CALM 0 0 0 0 1019.3 1019.1 11.6
 
Date/Time
EST
Temp
°C
App
Temp
°C
Dew
Point
°C
Rel
Hum
%
Delta-T
°C
Wind Press
QNH
hPa
Press
MSL
hPa
Rain since
9am
mm
Dir  Spd
km/h
Gust
km/h
Spd
kts
Gust
kts
28/11:30pm 18.4 21.4 18.4 100 0.0 CALM 0 0 0 0 1019.4 1019.2 11.6
28/11:00pm 18.4 21.4 18.4 100 0.0 CALM 0 0 0 0 1019.4 1019.2 11.6
28/10:30pm 18.7 21.8 18.7 100 0.0 CALM 0 0 0 0 1019.5 1019.3 11.6
28/10:00pm 18.3 21.1 18.0 98 0.2 CALM 0 0 0 0 1019.8 1019.6 11.6
28/09:30pm 18.9 21.9 18.4 97 0.3 CALM 0 0 0 0 1020.1 1019.9 11.6
28/09:00pm 19.4 22.2 18.9 97 0.3 SE 2 4 1 2 1019.8 1019.6 11.6
28/08:30pm 19.8 23.2 19.3 97 0.3 CALM 0 0 0 0 1019.3 1019.1 11.6
28/08:00pm 20.0 23.0 19.2 95 0.5 E 2 4 1 2 1019.2 1019.0 11.4
28/07:30pm 20.5 24.0 19.5 94 0.6 CALM 0 0 0 0 1019.1 1018.9 11.4
28/07:00pm 20.8 23.8 19.3 91 0.9 E 2 4 1 2 1018.9 1018.7 11.4
28/06:30pm 21.6 23.9 19.5 88 1.3 E 6 9 3 5 1018.5 1018.3 11.4
28/06:00pm 22.1 23.9 19.5 85 1.7 E 9 15 5 8 1018.4 1018.2 11.4
28/05:30pm 22.7 26.8 20.8 89 1.2 CALM 0 0 0 0 1018.1 1017.9 11.4
28/05:00pm 22.9 27.2 21.2 90 1.1 CALM 0 2 0 1 1017.8 1017.6 11.4
28/04:30pm 22.9 26.6 21.4 91 1.0 SSE 4 6 2 3 1017.7 1017.5 11.4
28/04:00pm 23.0 26.5 21.1 89 1.2 SSE 4 9 2 5 1017.4 1017.2 11.4
28/03:30pm 24.6 28.6 21.3 82 2.2 SSE 2 2 1 1 1017.4 1017.2 11.4
28/03:00pm 21.9 24.4 21.1 95 0.5 NE 9 17 5 9 1017.7 1017.5 11.4
28/02:30pm 23.8 27.3 21.1 85 1.8 NE 4 9 2 5 1017.5 1017.3 2.6
28/02:00pm 23.3 26.3 21.2 88 1.4 NE 7 11 4 6 1017.5 1017.3 2.6
28/01:46pm 23.3 24.1 19.0 77 2.7 ENE 13 24 7 13 1017.6 1017.4 1.8
28/01:30pm 28.4 29.9 18.8 56 6.2 SW 9 17 5 9 1017.7 1017.5 0.0
28/01:00pm 26.9 28.6 18.5 60 5.4 S 7 13 4 7 1018.0 1017.8 0.0
28/12:30pm 26.9 28.3 17.9 57 5.7 SSW 7 13 4 7 1018.4 1018.2 0.0
28/12:00pm 26.6 27.7 17.9 59 5.5 S 9 15 5 8 1018.8 1018.6 0.0
28/11:30am 26.4 27.6 18.3 61 5.1 SSW 9 13 5 7 1019.5 1019.3 0.0
28/11:00am 26.2 27.7 18.1 61 5.1 S 7 13 4 7 1019.9 1019.7 0.0
28/10:30am 25.4 26.0 17.6 62 4.9 SW 11 19 6 10 1020.3 1020.1 0.0
28/10:00am 25.1 25.7 17.8 64 4.6 SSW 11 17 6 9 1020.5 1020.3 0.0
28/09:30am 24.1 24.0 16.9 64 4.4 SSW 13 20 7 11 1020.7 1020.5 0.0
28/09:00am 23.6 23.6 17.1 67 4.0 S 13 19 7 10 1020.8 1020.6 0.0
28/08:30am 22.1 21.3 16.1 69 3.6 S 15 20 8 11 1020.9 1020.7 0.0
28/08:00am 21.4 21.5 16.4 73 3.0 SSW 11 17 6 9 1020.7 1020.5 0.0
28/07:30am 20.3 21.1 15.9 76 2.6 SSW 6 9 3 5 1020.6 1020.4 0.0
28/07:00am 19.0 19.6 15.3 79 2.2 S 6 9 3 5 1020.3 1020.1 0.0
28/06:30am 17.7 18.1 14.8 83 1.7 S 6 7 3 4 1019.9 1019.7 0.0
28/06:00am 17.0 17.7 14.5 85 1.4 S 4 6 2 3 1019.7 1019.5 0.0
28/05:30am 17.3 17.6 14.6 84 1.6 S 6 7 3 4 1019.6 1019.4 0.0
28/05:00am 17.4 17.7 14.5 83 1.7 S 6 9 3 5 1019.4 1019.2 0.0
28/04:30am 17.5 17.7 14.8 84 1.6 S 7 13 4 7 1019.4 1019.2 0.0
28/04:00am 17.6 18.1 15.0 85 1.5 S 6 13 3 7 1019.4 1019.2 0.0
28/03:30am 17.8 18.4 15.2 85 1.5 SSW 6 11 3 6 1019.3 1019.1 0.0
28/03:00am 18.0 18.1 15.6 86 1.4 S 9 17 5 9 1019.2 1019.0 0.0
28/02:30am 17.9 18.1 15.7 87 1.3 S 9 15 5 8 1019.4 1019.2 0.0
28/02:00am 17.8 18.4 15.8 88 1.2 S 7 11 4 6 1019.9 1019.7 0.0
28/01:30am 17.6 18.3 15.6 88 1.2 S 6 9 3 5 1020.1 1019.9 0.0
28/01:00am 17.9 18.6 15.5 86 1.4 S 6 11 3 6 1020.4 1020.2 0.0
28/12:30am 18.0 18.5 15.6 86 1.4 S 7 11 4 6 1020.5 1020.3 0.0
28/12:00am 18.2 18.3 15.5 84 1.6 S 9 13 5 7 1020.7 1020.5 0.0
 
Date/Time
EST
Temp
°C
App
Temp
°C
Dew
Point
°C
Rel
Hum
%
Delta-T
°C
Wind Press
QNH
hPa
Press
MSL
hPa
Rain since
9am
mm
Dir  Spd
km/h
Gust
km/h
Spd
kts
Gust
kts
27/11:30pm 18.5 19.0 15.6 83 1.7 S 7 13 4 7 1021.0 1020.8 0.0
27/11:00pm 19.0 19.5 15.5 80 2.1 S 7 13 4 7 1021.1 1020.9 0.0
27/10:30pm 18.4 19.3 15.1 81 1.9 S 4 9 2 5 1021.5 1021.3 0.0
27/10:00pm 18.7 19.9 14.8 78 2.3 S 2 4 1 2 1021.4 1021.2 0.0
27/09:30pm 19.1 19.6 15.0 77 2.4 S 6 9 3 5 1021.3 1021.1 0.0
27/09:00pm 19.0 19.8 14.9 77 2.4 S 4 6 2 3 1021.4 1021.2 0.0
27/08:30pm 19.4 19.9 15.1 76 2.5 S 6 9 3 5 1021.6 1021.4 0.0
27/08:00pm 19.5 20.7 15.8 79 2.2 S 4 6 2 3 1021.3 1021.1 0.0
27/07:30pm 19.1 21.0 15.8 81 2.0 CALM 0 0 0 0 1021.3 1021.1 0.0
27/07:00pm 20.0 21.2 15.0 73 2.9 S 2 4 1 2 1021.1 1020.9 0.0
27/06:30pm 20.8 22.0 14.9 69 3.5 S 2 6 1 3 1020.6 1020.4 0.0
27/06:00pm 21.9 21.8 15.0 65 4.1 S 9 11 5 6 1020.4 1020.2 0.0
27/05:30pm 23.1 22.8 15.4 62 4.6 SSE 11 19 6 10 1020.3 1020.1 0.0
27/05:00pm 23.8 22.1 14.8 57 5.3 S 17 24 9 13 1020.1 1019.9 0.0
27/04:30pm 24.1 23.6 14.8 56 5.5 SSE 11 19 6 10 1020.0 1019.8 0.0
27/04:00pm 23.7 24.0 16.0 62 4.7 SSW 9 13 5 7 1019.9 1019.7 0.0
27/03:30pm 23.9 22.6 14.9 57 5.4 S 15 26 8 14 1020.0 1019.8 0.0
27/03:00pm 24.2 22.9 15.9 59 5.0 SSE 17 26 9 14 1020.0 1019.8 0.0
27/02:30pm 24.5 23.3 16.0 59 5.2 S 17 24 9 13 1020.0 1019.8 0.0
27/02:00pm 24.0 23.8 17.7 68 3.9 S 15 24 8 13 1020.2 1020.0 0.0
27/01:30pm 23.8 24.5 18.0 70 3.6 S 11 20 6 11 1020.5 1020.3 0.0
27/01:00pm 23.6 22.4 17.1 67 4.0 SSW 19 32 10 17 1020.6 1020.4 0.0
27/12:30pm 23.6 24.5 17.6 69 3.7 SSE 9 17 5 9 1020.8 1020.6 0.0
27/12:00pm 24.3 24.1 17.5 66 4.2 SSW 15 24 8 13 1021.0 1020.8 0.0
27/11:30am 23.8 23.4 17.1 66 4.1 SSW 15 22 8 12 1021.3 1021.1 0.0
27/11:00am 23.9 24.7 17.4 67 4.0 S 9 17 5 9 1021.5 1021.3 0.0
27/10:30am 23.5 23.8 17.0 67 4.0 SSW 11 19 6 10 1021.6 1021.4 0.0
27/10:00am 23.8 24.4 17.8 69 3.7 SSW 11 19 6 10 1021.7 1021.5 0.0
27/09:30am 23.6 23.9 17.8 70 3.6 S 13 20 7 11 1021.8 1021.6 0.0
27/09:00am 23.3 23.6 18.0 72 3.3 S 13 22 7 12 1021.8 1021.6 0.0
27/08:30am 22.1 22.3 17.7 76 2.7 S 13 22 7 12 1021.8 1021.6 0.0
27/08:00am 21.3 21.9 17.7 80 2.2 S 11 19 6 10 1021.7 1021.5 0.0
27/07:30am 20.5 22.0 17.7 84 1.7 S 6 9 3 5 1021.5 1021.3 0.0
27/07:00am 20.0 21.0 17.8 87 1.4 S 9 13 5 7 1021.3 1021.1 0.0
27/06:30am 19.2 21.2 17.9 92 0.8 SSW 4 7 2 4 1020.9 1020.7 0.0
27/06:00am 18.5 20.4 17.7 95 0.5 S 4 7 2 4 1020.8 1020.6 0.0
27/05:30am 17.6 19.3 17.1 97 0.3 S 4 4 2 2 1020.4 1020.2 0.0
27/05:00am 16.8 18.7 15.8 94 0.6 CALM 0 0 0 0 1020.2 1020.0 0.0
27/04:30am 17.5 19.5 16.9 96 0.4 S 2 4 1 2 1019.8 1019.6 0.0
27/04:00am 17.6 19.1 16.6 94 0.6 SSW 4 6 2 3 1019.7 1019.5 0.0
27/03:30am 18.1 20.4 16.8 92 0.8 CALM 0 0 0 0 1019.7 1019.5 0.0
27/03:00am 18.5 20.5 17.0 91 0.9 SSW 2 4 1 2 1019.7 1019.5 0.0
27/02:30am 18.3 20.5 16.6 90 1.0 CALM 0 2 0 1 1020.0 1019.8 0.0
27/02:00am 19.1 21.7 17.4 90 1.0 CALM 0 0 0 0 1020.2 1020.0 0.0
27/01:30am 19.5 21.6 18.0 91 0.9 S 4 6 2 3 1020.6 1020.4 0.0
27/01:00am 19.7 22.2 18.2 91 0.9 SSW 2 6 1 3 1020.8 1020.6 0.0
27/12:30am 19.6 21.6 17.9 90 1.0 SSW 4 6 2 3 1020.7 1020.5 0.0
27/12:00am 20.2 22.3 18.1 88 1.3 SSW 4 7 2 4 1020.8 1020.6 0.0
 
Date/Time
EST
Temp
°C
App
Temp
°C
Dew
Point
°C
Rel
Hum
%
Delta-T
°C
Wind Press
QNH
hPa
Press
MSL
hPa
Rain since
9am
mm
Dir  Spd
km/h
Gust
km/h
Spd
kts
Gust
kts
26/11:30pm 20.4 22.2 18.2 87 1.4 SSE 6 9 3 5 1021.0 1020.8 0.0
26/11:00pm 20.6 22.8 18.4 87 1.4 SSE 4 6 2 3 1020.9 1020.7 0.0
26/10:30pm 20.8 23.9 18.7 88 1.3 CALM 0 2 0 1 1021.0 1020.8 0.0
26/10:00pm 21.2 23.7 19.1 88 1.3 SSE 4 7 2 4 1021.1 1020.9 0.0
26/09:30pm 21.2 23.6 18.8 86 1.5 SE 4 6 2 3 1021.2 1021.0 0.0
26/09:00pm 20.9 23.8 18.3 85 1.6 CALM 0 0 0 0 1021.2 1021.0 0.0
26/08:30pm 20.7 23.5 17.9 84 1.7 CALM 0 0 0 0 1020.9 1020.7 0.0
26/08:00pm 21.0 23.3 17.6 81 2.1 SE 2 6 1 3 1020.4 1020.2 0.0

Latest Capital City Observations: Canberra | Sydney | Melbourne | Brisbane | Adelaide | Perth | Hobart | Darwin

Other formats

Comma delimited format used in spreadsheet applications
http://www.bom.gov.au/fwo/IDQ60901/IDQ60901.95575.axf

JavaScript Object Notation format (JSON) in row-major order
http://www.bom.gov.au/fwo/IDQ60901/IDQ60901.95575.json

Data quality

Most of these data are generated automatically and are frequently updated. Quality checks on data are not normally performed. It is possible for incorrect values to appear. Refer to information at About Latest Weather Observations and please check the disclaimer before using these data.